Time;durP1;ratioP1;P1;durP2;ratioP2;P2;SDS_P1;SDS_P2;PMS_P1;PMS_P2;Temp;Humidity;BMP_temperature;BMP_pressure;BME280_temperature;BME280_humidity;BME280_pressure;Samples;Min_cycle;Max_cycle;Signal;HPM_P1;HPM_P2
2022/05/02 00:01:40;;;;;;;8.63;5.25;;;;;;;8.74;75.69;100615.42;1771602;81;21224;-79
2022/05/02 00:04:33;;;;;;;6.40;3.55;;;;;;;8.73;76.00;100615.59;1773023;81;21185;-79
2022/05/02 00:07:40;;;;;;;5.73;3.83;;;;;;;8.69;76.82;100615.89;1772897;81;21787;-79
2022/05/02 00:10:46;;;;;;;6.03;4.30;;;;;;;8.63;77.12;100621.13;1771297;81;21268;-78
2022/05/02 00:13:52;;;;;;;6.92;4.22;;;;;;;8.56;77.60;100619.55;1772701;81;21217;-78
2022/05/02 00:16:59;;;;;;;10.63;5.22;;;;;;;8.53;77.83;100614.39;1771601;81;21260;-78
2022/05/02 00:20:05;;;;;;;7.42;4.55;;;;;;;8.53;77.66;100610.81;1772088;81;21233;-78
2022/05/02 00:23:15;;;;;;;10.23;5.10;;;;;;;8.53;77.25;100614.91;1772620;81;21177;-78
2022/05/02 00:26:19;;;;;;;7.95;4.30;;;;;;;8.54;77.34;100621.55;1772737;81;21744;-78
2022/05/02 00:29:25;;;;;;;8.75;4.67;;;;;;;8.56;77.38;100617.30;1772701;81;21193;-79
2022/05/02 00:32:31;;;;;;;8.80;4.60;;;;;;;8.58;77.32;100612.56;1765945;81;21213;-78
2022/05/02 00:35:37;;;;;;;8.13;4.80;;;;;;;8.57;77.20;100612.22;1764496;81;21229;-78
2022/05/02 00:38:43;;;;;;;6.28;4.20;;;;;;;8.56;77.02;100611.37;1835487;78;21161;-78
2022/05/02 00:41:50;;;;;;;7.47;4.80;;;;;;;8.57;76.77;100616.31;1833840;78;21193;-78
2022/05/02 00:44:58;;;;;;;7.87;4.60;;;;;;;8.57;76.48;100611.71;1762986;81;21173;-78
2022/05/02 00:48:05;;;;;;;7.58;4.35;;;;;;;8.58;76.33;100608.48;1835314;78;21189;-78
2022/05/02 00:51:12;;;;;;;6.87;4.60;;;;;;;8.58;76.51;100611.20;1834253;78;21272;-78
2022/05/02 00:54:18;;;;;;;6.92;3.55;;;;;;;8.57;76.96;100614.95;1762974;81;21252;-79
2022/05/02 00:57:25;;;;;;;7.50;4.53;;;;;;;8.53;77.54;100605.36;1834169;78;21164;-78
2022/05/02 01:00:29;;;;;;;9.03;3.95;;;;;;;8.50;77.12;100613.84;1764404;81;21193;-78
2022/05/02 01:03:35;;;;;;;6.55;4.25;;;;;;;8.51;76.75;100615.04;1835666;78;21165;-78
2022/05/02 01:10:05;;;;;;;10.38;4.42;;;;;;;8.53;77.27;100607.58;1835516;78;21264;-78
2022/05/02 01:13:13;;;;;;;8.08;4.60;;;;;;;8.56;77.38;100607.75;1764853;81;21153;-79
2022/05/02 01:16:32;;;;;;;11.57;5.12;;;;;;;8.57;77.08;100598.59;1836161;78;21173;-78
2022/05/02 01:19:37;;;;;;;7.67;4.30;;;;;;;8.63;76.76;100600.68;1764986;81;21196;-78
2022/05/02 01:22:44;;;;;;;8.98;4.55;;;;;;;8.67;76.72;100596.63;1834166;78;21227;-79
2022/05/02 01:25:44;;;;;;;6.92;4.58;;;;;;;8.70;76.67;100601.27;1764943;81;21220;-78
2022/05/02 01:28:57;;;;;;;10.10;4.40;;;;;;;8.72;76.71;100603.83;1835401;78;21165;-78
2022/05/02 01:32:06;;;;;;;9.38;4.92;;;;;;;8.72;76.00;100603.83;1834550;78;21204;-78
2022/05/02 01:35:11;;;;;;;11.75;4.83;;;;;;;8.76;75.52;100602.50;1764637;81;21244;-79
2022/05/02 01:38:16;;;;;;;6.65;4.28;;;;;;;8.81;75.08;100597.43;1835682;78;21200;-78
2022/05/02 01:41:22;;;;;;;8.70;4.28;;;;;;;8.85;75.99;100596.11;1763760;81;21205;-79
2022/05/02 01:44:27;;;;;;;7.05;4.50;;;;;;;8.85;77.49;100596.11;1835619;78;21165;-78
2022/05/02 01:47:33;;;;;;;16.62;5.05;;;;;;;8.87;78.39;100602.75;1764248;81;21217;-79
2022/05/02 01:50:41;;;;;;;15.83;4.92;;;;;;;8.86;78.54;100599.17;1834193;78;21256;-79
2022/05/02 01:53:47;;;;;;;13.20;4.87;;;;;;;8.88;76.64;100601.22;1763300;81;21244;-78
2022/05/02 01:56:47;;;;;;;7.60;5.25;;;;;;;8.90;76.53;100599.72;1835722;78;21165;-79
2022/05/02 01:59:53;;;;;;;14.30;5.42;;;;;;;8.91;75.96;100595.46;1835319;78;21181;-79
2022/05/02 02:03:09;;;;;;;11.90;5.45;;;;;;;8.94;75.54;100597.89;1763624;81;21764;-80
2022/05/02 02:06:15;;;;;;;9.45;5.33;;;;;;;8.98;75.66;100601.64;1833963;78;21165;-79
2022/05/02 02:09:21;;;;;;;9.10;4.62;;;;;;;8.99;76.01;100599.25;1764788;81;21225;-79
2022/05/02 02:12:27;;;;;;;8.03;4.62;;;;;;;8.99;76.57;100604.70;1834539;78;21212;-80
2022/05/02 02:15:32;;;;;;;14.63;5.12;;;;;;;8.96;75.62;100601.81;1764638;81;21190;-79
2022/05/02 02:18:41;;;;;;;9.65;5.25;;;;;;;8.99;74.21;100604.70;1835043;78;21173;-79
2022/05/02 02:21:47;;;;;;;12.78;5.55;;;;;;;9.00;73.50;100603.20;1763266;81;21388;-79
2022/05/02 02:24:54;;;;;;;9.15;5.00;;;;;;;9.03;72.99;100601.50;1834091;78;21171;-78
2022/05/02 02:28:02;;;;;;;8.03;5.35;;;;;;;9.07;72.93;100610.23;1764680;81;21189;-78
2022/05/02 02:31:08;;;;;;;12.75;5.85;;;;;;;9.08;72.88;100606.00;1833944;78;21173;-79
2022/05/02 02:34:14;;;;;;;11.30;5.97;;;;;;;9.09;72.87;100598.67;1763936;81;21732;-78
2022/05/02 02:37:19;;;;;;;8.88;6.00;;;;;;;9.10;73.27;100605.33;1835751;78;21169;-78
2022/05/02 02:40:25;;;;;;;11.05;5.70;;;;;;;9.12;73.25;100609.25;1764554;81;21213;-78
2022/05/02 02:43:31;;;;;;;11.28;5.65;;;;;;;9.13;73.45;100608.25;1834107;78;21289;-78
2022/05/02 02:46:37;;;;;;;9.75;6.25;;;;;;;9.14;74.69;100608.59;1764675;81;21188;-78
2022/05/02 02:49:42;;;;;;;9.25;6.05;;;;;;;9.12;75.14;100610.61;1834137;78;21187;-79
2022/05/02 02:52:49;;;;;;;10.75;5.47;;;;;;;9.13;75.08;100609.63;1763792;81;21229;-78
2022/05/02 02:55:56;;;;;;;8.75;5.53;;;;;;;9.14;75.23;100614.05;1835618;78;21177;-78
2022/05/02 02:59:01;;;;;;;10.40;5.10;;;;;;;9.15;75.16;100614.39;1763623;81;21213;-78
2022/05/02 03:02:06;;;;;;;7.15;4.72;;;;;;;9.15;75.07;100615.77;1835264;78;21743;-78
2022/05/02 03:08:44;;;;;;;8.98;5.40;;;;;;;9.13;75.45;100621.91;1835524;78;21177;-79
2022/05/02 03:11:49;;;;;;;;;;;;;;;9.14;75.93;100630.42;1765905;81;21237;-79
2022/05/02 03:14:54;;;;;;;7.90;5.08;;;;;;;9.14;76.15;100627.19;1764753;81;20235;-79
2022/05/02 03:18:00;;;;;;;8.48;5.25;;;;;;;9.13;75.26;100632.81;1835428;78;21161;-79
2022/05/02 03:21:07;;;;;;;13.78;5.00;;;;;;;9.11;74.49;100630.22;1764686;81;21225;-79
2022/05/02 03:24:14;;;;;;;10.32;5.80;;;;;;;9.12;74.61;100641.99;1835767;78;21161;-79
2022/05/02 03:27:20;;;;;;;13.38;5.67;;;;;;;9.14;74.81;100637.25;1764768;81;21229;-79
2022/05/02 03:30:25;;;;;;;13.72;5.80;;;;;;;9.17;74.31;100638.28;1835484;78;21172;-78
2022/05/02 03:33:31;;;;;;;10.60;5.28;;;;;;;9.21;74.30;100634.22;1763217;81;21213;-78
2022/05/02 03:36:36;;;;;;;12.70;5.97;;;;;;;9.26;74.33;100631.86;1834479;78;21216;-78
2022/05/02 03:39:42;;;;;;;10.58;5.53;;;;;;;9.30;73.49;100633.26;1764550;81;21165;-79
2022/05/02 03:42:50;;;;;;;11.90;5.67;;;;;;;9.36;72.86;100637.21;1835132;78;21165;-78
2022/05/02 03:45:56;;;;;;;10.63;6.53;;;;;;;9.42;73.14;100636.08;1763054;81;21740;-79
2022/05/02 03:49:02;;;;;;;10.70;5.80;;;;;;;9.49;73.59;100640.37;1835160;78;21225;-79
2022/05/02 03:52:09;;;;;;;9.78;5.37;;;;;;;9.60;73.46;100636.54;1835510;78;21169;-79
2022/05/02 03:55:14;;;;;;;12.80;4.97;;;;;;;9.69;73.19;100635.05;1835289;78;21298;-80
2022/05/02 03:58:13;;;;;;;14.03;6.25;;;;;;;9.77;73.17;100634.22;1764505;81;21177;-79
2022/05/02 04:01:06;;;;;;;12.85;5.37;;;;;;;9.82;73.13;100636.45;1835907;78;21149;-79
2022/05/02 04:04:12;;;;;;;13.88;5.35;;;;;;;9.87;72.31;100632.72;1763513;81;21221;-79
2022/05/02 04:07:17;;;;;;;16.67;5.92;;;;;;;9.93;72.30;100637.55;1835642;78;21177;-79
2022/05/02 04:10:23;;;;;;;11.90;5.42;;;;;;;9.97;72.09;100637.06;1835488;78;21161;-80
2022/05/02 04:13:28;;;;;;;14.53;5.58;;;;;;;10.07;71.96;100642.39;1760924;81;21260;-80
2022/05/02 04:16:34;;;;;;;9.98;6.40;;;;;;;10.17;71.62;100639.52;1734328;82;21244;-79
2022/05/02 04:19:39;;;;;;;14.45;5.60;;;;;;;10.28;71.43;100643.34;1805516;78;21209;-79
2022/05/02 04:22:45;;;;;;;11.80;6.25;;;;;;;10.38;70.99;100646.78;1800898;77;21296;-80
2022/05/02 04:25:50;;;;;;;10.70;5.87;;;;;;;10.48;71.52;100642.02;1728893;80;21181;-80
2022/05/02 04:28:56;;;;;;;11.78;5.97;;;;;;;10.57;70.89;100640.67;1802463;79;21787;-80
2022/05/02 04:31:54;;;;;;;11.20;5.90;;;;;;;10.63;70.33;100646.34;1842779;77;21195;-80
2022/05/02 04:35:02;;;;;;;13.38;6.92;;;;;;;10.69;69.83;100644.80;1752175;80;21265;-80
2022/05/02 04:38:08;;;;;;;10.60;6.65;;;;;;;10.72;68.52;100643.08;1780744;79;21744;-79
2022/05/02 04:41:14;;;;;;;11.22;6.87;;;;;;;10.80;67.77;100649.08;1792300;78;21212;-79
2022/05/02 04:44:22;;;;;;;23.67;7.72;;;;;;;10.86;66.68;100647.88;1737273;81;21210;-80
2022/05/02 04:47:28;;;;;;;18.32;6.55;;;;;;;10.98;67.55;100652.00;1712742;81;21161;-80
2022/05/02 04:50:34;;;;;;;10.00;5.78;;;;;;;11.12;69.75;100645.50;1735964;82;21204;-80
2022/05/02 04:53:40;;;;;;;17.65;6.33;;;;;;;11.24;69.71;100651.84;1708047;81;21193;-80
2022/05/02 04:56:48;;;;;;;10.23;5.97;;;;;;;11.35;70.33;100656.10;1731473;82;21192;-80
2022/05/02 04:59:56;;;;;;;18.02;6.95;;;;;;;11.42;70.17;100654.36;1710174;83;21748;-80
2022/05/02 05:03:01;;;;;;;14.23;6.45;;;;;;;11.49;69.22;100661.39;1730496;82;21854;-80
2022/05/02 05:06:07;;;;;;;15.70;6.15;;;;;;;11.60;69.31;100665.13;1706887;81;21188;-80
2022/05/02 05:09:13;;;;;;;16.30;7.62;;;;;;;11.69;68.81;100664.08;1718900;81;21263;-80
2022/05/02 05:12:31;;;;;;;13.30;7.45;;;;;;;11.73;65.72;100671.44;1738783;82;21230;-78
2022/05/02 05:16:24;;;;;;;16.45;7.20;;;;;;;11.80;66.28;100673.80;1691292;81;21215;-79
2022/05/02 05:19:50;;;;;;;10.50;5.83;;;;;;;11.85;66.73;100669.20;1707163;83;21401;-79
2022/05/02 05:23:23;;;;;;;10.85;5.55;;;;;;;11.91;67.69;100669.89;1723653;81;21510;-79
2022/05/02 05:26:35;;;;;;;11.93;6.45;;;;;;;11.92;67.96;100672.44;1727716;82;21238;-78
2022/05/02 05:30:12;;;;;;;15.43;5.75;;;;;;;11.92;67.46;100683.41;1720281;83;21153;-78
2022/05/02 05:33:34;;;;;;;14.38;6.12;;;;;;;11.97;66.77;100674.13;1737592;82;21154;-78
2022/05/02 05:36:57;;;;;;;13.15;6.47;;;;;;;12.07;66.23;100671.70;1742296;80;21189;-80
2022/05/02 05:40:21;;;;;;;14.03;6.70;;;;;;;12.15;66.48;100667.56;1743448;81;21212;-80
2022/05/02 05:43:46;;;;;;;16.55;6.28;;;;;;;12.23;66.45;100671.13;1715450;82;21360;-80
2022/05/02 05:47:54;;;;;;;11.43;6.15;;;;;;;12.36;65.00;100665.05;1752210;79;21200;-80
2022/05/02 05:51:13;;;;;;;20.52;5.33;;;;;;;12.52;63.88;100664.13;1748120;81;21360;-80
2022/05/02 05:54:34;;;;;;;14.35;7.03;;;;;;;12.63;63.35;100658.73;1741802;82;21204;-79
2022/05/02 05:58:17;;;;;;;14.43;7.97;;;;;;;12.74;63.15;100665.17;1733506;81;21213;-80
2022/05/02 06:01:48;;;;;;;12.65;6.25;;;;;;;12.78;60.18;100665.14;1758944;81;21175;-79
2022/05/02 06:04:57;;;;;;;13.85;6.15;;;;;;;12.88;59.73;100667.65;1761869;81;21462;-79
2022/05/02 06:08:03;;;;;;;12.68;6.47;;;;;;;12.92;59.70;100670.37;1741488;81;21281;-79
2022/05/02 06:11:10;;;;;;;17.27;7.75;;;;;;;12.93;60.16;100672.92;1732853;81;21199;-79
2022/05/02 06:14:16;;;;;;;14.68;7.40;;;;;;;13.02;60.50;100680.58;1763089;81;21158;-79
2022/05/02 06:20:45;;;;;;;15.10;7.62;;;;;;;13.25;57.99;100677.86;1761894;81;21149;-79
2022/05/02 06:23:55;;;;;;;16.25;7.92;;;;;;;13.43;56.73;100675.64;1736887;82;21184;-79
2022/05/02 06:27:01;;;;;;;21.82;9.15;;;;;;;13.61;57.06;100673.08;1732661;81;21788;-78
2022/05/02 06:30:08;;;;;;;17.25;8.78;;;;;;;13.77;55.68;100676.48;1731963;81;21214;-78
2022/05/02 06:33:19;;;;;;;16.85;7.92;;;;;;;13.94;54.72;100679.08;1761917;80;21189;-79
2022/05/02 06:36:29;;;;;;;;;;;;;;;14.13;55.04;100674.37;1750012;81;21477;-80
2022/05/02 06:40:12;;;;;;;15.83;8.58;;;;;;;14.31;54.00;100677.59;1746940;81;20224;-79
2022/05/02 06:43:45;;;;;;;19.45;8.40;;;;;;;14.40;52.80;100681.09;1814313;78;21173;-80
2022/05/02 06:46:57;;;;;;;17.17;8.35;;;;;;;14.50;53.40;100683.05;1806131;78;21142;-80
2022/05/02 06:50:10;;;;;;;18.80;8.53;;;;;;;14.55;53.14;100677.81;1807654;78;21279;-79
2022/05/02 06:53:48;;;;;;;17.98;8.70;;;;;;;14.67;53.42;100681.42;1802207;78;21821;-80
2022/05/02 06:57:09;;;;;;;18.00;8.65;;;;;;;14.73;52.65;100677.91;1803180;78;21177;-80
2022/05/02 07:00:15;;;;;;;19.60;9.53;;;;;;;14.85;52.30;100676.34;1810084;77;21163;-80
2022/05/02 07:03:49;;;;;;;19.40;9.00;;;;;;;14.97;52.58;100679.44;1806239;78;21842;-80
2022/05/02 07:07:27;;;;;;;18.32;7.62;;;;;;;15.07;52.44;100680.81;1805726;78;21784;-80
2022/05/02 07:10:37;;;;;;;19.95;8.10;;;;;;;15.28;52.27;100686.83;1805911;78;21190;-79
2022/05/02 07:13:48;;;;;;;13.53;7.65;;;;;;;15.37;52.68;100681.19;1804910;78;21540;-80
2022/05/02 07:16:56;;;;;;;17.27;8.63;;;;;;;15.47;53.58;100684.45;1813391;78;21130;-80
2022/05/02 07:20:12;;;;;;;21.80;7.70;;;;;;;15.53;51.60;100683.67;1753573;81;21226;-80
2022/05/02 07:23:49;;;;;;;19.45;7.80;;;;;;;15.66;51.38;100683.78;1811152;78;21166;-80
2022/05/02 07:27:18;;;;;;;16.57;7.50;;;;;;;15.86;51.41;100686.71;1809471;77;21173;-80
2022/05/02 07:30:23;;;;;;;16.10;7.15;;;;;;;16.07;50.22;100681.10;1748071;81;21503;-79
2022/05/02 07:33:30;;;;;;;18.32;6.95;;;;;;;16.32;47.75;100678.67;1737383;81;21293;-79
2022/05/02 07:36:38;;;;;;;13.25;7.12;;;;;;;16.55;46.68;100674.21;1806116;78;21193;-79
2022/05/02 07:39:45;;;;;;;15.30;7.67;;;;;;;16.72;46.51;100675.27;1803028;77;21190;-79
2022/05/02 07:42:51;;;;;;;19.55;7.95;;;;;;;16.79;46.34;100678.89;1793260;78;21977;-80
2022/05/02 07:45:58;;;;;;;14.10;6.90;;;;;;;16.70;46.48;100670.44;1817347;78;21174;-79
2022/05/02 07:49:13;;;;;;;14.03;7.00;;;;;;;16.64;46.44;100674.03;1813537;77;21203;-79
2022/05/02 07:52:30;;;;;;;15.40;6.65;;;;;;;16.65;46.04;100669.67;1818764;77;21215;-81
2022/05/02 07:55:55;;;;;;;12.15;6.50;;;;;;;16.67;45.63;100676.39;1807285;77;21196;-80
2022/05/02 07:59:07;;;;;;;15.03;6.15;;;;;;;16.61;45.31;100667.88;1795832;78;21173;-81
2022/05/02 08:02:14;;;;;;;11.73;5.60;;;;;;;16.61;44.94;100667.88;1803835;78;21215;-79
2022/05/02 08:05:28;;;;;;;11.48;5.83;;;;;;;16.61;44.28;100665.13;1808525;78;21153;-79
2022/05/02 08:08:31;;;;;;;23.60;7.85;;;;;;;16.68;44.34;100667.05;1807029;77;21165;-78
2022/05/02 08:11:44;;;;;;;14.93;7.25;;;;;;;16.73;44.92;100661.78;1803338;78;21327;-80
2022/05/02 08:15:10;;;;;;;13.90;7.28;;;;;;;16.75;44.62;100656.88;1804592;78;21165;-79
2022/05/02 08:18:28;;;;;;;15.95;7.30;;;;;;;16.70;44.81;100657.51;1807104;78;21268;-80
2022/05/02 08:27:15;;;;;;;12.23;6.65;;;;;;;16.67;45.14;100659.30;1816426;78;21169;-79
2022/05/02 08:29:10;;;;;;;11.43;4.62;;;;;;;16.76;44.29;100658.61;1801918;79;21401;-81
2022/05/02 08:33:09;;;;;;;9.65;4.90;;;;;;;16.99;42.58;100650.80;1859144;76;22522;-80
2022/05/02 08:36:37;;;;;;;9.78;4.37;;;;;;;17.03;42.00;100649.33;1817247;77;21184;-79
2022/05/02 08:40:06;;;;;;;10.50;3.67;;;;;;;17.16;42.17;100642.09;1778589;79;21220;-80
2022/05/02 08:43:48;;;;;;;7.50;4.30;;;;;;;17.25;40.78;100641.67;1715181;82;21226;-80
2022/05/02 08:47:16;;;;;;;7.40;3.27;;;;;;;17.37;40.33;100632.22;1735988;82;21192;-81
2022/05/02 08:50:49;;;;;;;7.33;3.12;;;;;;;17.47;40.29;100629.87;1758773;80;21569;-80
2022/05/02 08:54:23;;;;;;;4.35;3.00;;;;;;;17.53;38.98;100627.63;1738096;82;21221;-80
2022/05/02 08:57:46;;;;;;;10.38;4.10;;;;;;;17.41;38.16;100621.06;1740667;81;21181;-79
2022/05/02 09:01:19;;;;;;;6.97;3.70;;;;;;;17.29;37.35;100618.06;1748858;81;21756;-79
2022/05/02 09:04:47;;;;;;;11.93;3.27;;;;;;;17.28;37.66;100616.37;1729756;82;21170;-80
2022/05/02 09:08:09;;;;;;;4.05;2.77;;;;;;;17.18;37.22;100606.81;1727482;82;21204;-80
2022/05/02 09:11:38;;;;;;;11.18;3.70;;;;;;;17.20;37.19;100604.14;1737582;82;21251;-79
2022/05/02 09:15:34;;;;;;;5.50;2.90;;;;;;;17.25;37.47;100599.35;1732251;82;21184;-79
2022/05/02 09:19:13;;;;;;;9.95;3.30;;;;;;;17.25;37.20;100601.58;1725794;82;21232;-79
2022/05/02 09:22:55;;;;;;;9.53;3.42;;;;;;;17.24;36.41;100598.51;1743006;82;21160;-80
2022/05/02 09:26:14;;;;;;;4.50;3.30;;;;;;;17.11;37.37;100591.05;1727960;82;21188;-79
2022/05/02 09:29:52;;;;;;;7.58;3.40;;;;;;;17.03;38.51;100587.65;1704594;82;21200;-79
2022/05/02 09:33:18;;;;;;;9.23;3.62;;;;;;;17.01;39.10;100583.73;1741761;80;21188;-80
2022/05/02 09:36:53;;;;;;;7.25;3.87;;;;;;;17.17;38.59;100583.83;1760008;80;21728;-79
2022/05/02 09:40:17;;;;;;;12.13;3.90;;;;;;;17.27;38.71;100576.52;1737985;82;21240;-79
2022/05/02 09:51:36;;;;;;;5.90;3.42;;;;;;;17.72;39.49;100565.03;1744133;81;21185;-79
2022/05/02 09:58:50;;;;;;;8.65;3.58;;;;;;;17.84;37.26;100561.11;1750478;81;21174;-79
2022/05/02 10:01:57;;;;;;;8.20;3.52;;;;;;;17.86;36.52;100554.81;1704108;82;21504;-82
2022/05/02 10:05:15;;;;;;;7.47;3.30;;;;;;;17.95;38.29;100552.12;1725296;82;21291;-80
2022/05/02 10:08:56;;;;;;;6.62;3.52;;;;;;;18.10;37.07;100552.69;1715725;82;21834;-80
2022/05/02 10:12:20;;;;;;;8.78;3.50;;;;;;;18.22;36.55;100543.17;1699253;82;21229;-80
2022/05/02 10:15:59;;;;;;;6.12;3.17;;;;;;;18.29;36.44;100544.50;1727499;82;21252;-80
2022/05/02 10:19:27;;;;;;;5.72;3.70;;;;;;;18.35;37.27;100536.72;1728334;82;21935;-79
2022/05/02 10:23:17;;;;;;;6.58;3.35;;;;;;;18.40;36.68;100534.12;1736630;81;21177;-79
2022/05/02 10:26:59;;;;;;;4.08;2.45;;;;;;;18.51;36.05;100534.80;1770836;81;21196;-80
2022/05/02 10:30:19;;;;;;;4.62;3.20;;;;;;;18.51;36.32;100525.10;1790058;79;21175;-80
2022/05/02 10:33:31;;;;;;;7.80;3.27;;;;;;;18.53;36.29;100522.94;1770294;79;21215;-80
2022/05/02 10:36:39;;;;;;;8.98;3.42;;;;;;;18.55;36.43;100522.74;1748600;81;21239;-79
2022/05/02 10:39:51;;;;;;;5.67;2.95;;;;;;;18.59;36.15;100524.84;1694714;83;21724;-79
2022/05/02 10:42:58;;;;;;;10.48;3.12;;;;;;;18.66;36.29;100516.47;1690689;83;21224;-80
2022/05/02 10:46:05;;;;;;;6.10;3.30;;;;;;;18.57;36.78;100524.20;1693964;83;21213;-80
2022/05/02 10:49:24;;;;;;;8.33;2.95;;;;;;;18.33;36.11;100516.69;1733948;81;21163;-80
2022/05/02 10:52:55;;;;;;;14.03;3.23;;;;;;;18.21;36.44;100512.92;1694902;84;21301;-79
2022/05/02 10:56:27;;;;;;;7.65;2.90;;;;;;;18.00;36.85;100514.95;1690609;85;21198;-79
2022/05/02 10:59:37;;;;;;;8.08;3.60;;;;;;;17.62;36.84;100516.23;1741721;82;21223;-79
2022/05/02 11:03:07;;;;;;;6.50;3.62;;;;;;;17.35;38.63;100514.91;1749489;81;21963;-79
2022/05/02 11:06:51;;;;;;;4.85;3.25;;;;;;;17.21;38.64;100512.39;1730038;81;21377;-79
2022/05/02 11:10:12;;;;;;;7.17;3.60;;;;;;;17.12;39.04;100513.14;1697466;83;21236;-79
2022/05/02 11:13:23;;;;;;;7.42;3.33;;;;;;;17.19;38.27;100509.00;1696445;82;21208;-79
2022/05/02 11:16:56;;;;;;;8.75;3.40;;;;;;;17.27;39.32;100509.62;1809789;79;21177;-80
2022/05/02 11:23:55;;;;;;;;;;;;;;;17.50;37.91;100499.48;1701069;83;21208;-79
2022/05/02 11:27:19;;;;;;;3.87;2.35;;;;;;;17.55;38.33;100497.41;1695073;83;20223;-79
2022/05/02 11:30:29;;;;;;;9.65;4.40;;;;;;;17.67;37.70;100498.98;1758618;81;21227;-80
2022/05/02 11:33:49;;;;;;;7.75;3.33;;;;;;;17.73;37.31;100493.45;1702871;83;21234;-80
2022/05/02 11:36:59;;;;;;;12.13;3.40;;;;;;;17.75;37.38;100493.25;1779711;79;21193;-80
2022/05/02 11:40:15;;;;;;;6.12;3.30;;;;;;;17.74;39.17;100495.17;1786147;79;21216;-80
2022/05/02 11:43:25;;;;;;;8.53;3.33;;;;;;;17.70;39.59;100486.96;1783073;79;21201;-79
2022/05/02 11:46:31;;;;;;;10.13;3.77;;;;;;;17.67;40.96;100488.77;1761527;81;21243;-79
2022/05/02 11:50:11;;;;;;;6.42;3.50;;;;;;;17.60;39.52;100490.73;1775336;80;21244;-79
2022/05/02 11:53:19;;;;;;;6.12;3.67;;;;;;;17.49;39.57;100494.99;1709926;84;21292;-80
2022/05/02 11:56:25;;;;;;;6.17;3.52;;;;;;;17.40;39.36;100489.91;1739881;82;21177;-79
2022/05/02 11:59:31;;;;;;;6.87;3.52;;;;;;;17.25;39.71;100491.02;1739684;82;21225;-79
2022/05/02 12:02:56;;;;;;;8.28;3.12;;;;;;;17.14;40.72;100488.07;1717017;83;21210;-79
2022/05/02 12:06:09;;;;;;;5.80;3.75;;;;;;;17.10;40.87;100490.41;1779283;80;21208;-79
2022/05/02 12:09:14;;;;;;;4.62;3.08;;;;;;;17.06;40.81;100486.37;1779257;80;21196;-80
2022/05/02 12:12:21;;;;;;;7.45;3.47;;;;;;;17.04;42.57;100481.06;1739509;80;21197;-80
2022/05/02 12:15:27;;;;;;;5.85;3.10;;;;;;;17.06;42.14;100476.16;1789856;80;21164;-80
2022/05/02 12:19:08;;;;;;;6.97;3.58;;;;;;;17.10;40.77;100471.91;1789777;79;21188;-80
2022/05/02 12:22:27;;;;;;;11.48;3.30;;;;;;;17.17;40.95;100477.41;1769701;80;21209;-79
2022/05/02 12:25:33;;;;;;;6.83;3.22;;;;;;;17.15;41.25;100480.94;1764154;80;21205;-78
2022/05/02 12:28:51;;;;;;;8.68;3.30;;;;;;;17.11;41.25;100480.51;1759222;80;21781;-78
2022/05/02 12:32:05;;;;;;;6.28;3.30;;;;;;;17.06;39.84;100478.92;1714682;83;21219;-80
2022/05/02 12:35:10;;;;;;;5.37;2.90;;;;;;;17.04;40.22;100479.69;1753656;80;21223;-80
2022/05/02 12:38:24;;;;;;;4.47;3.12;;;;;;;17.08;40.38;100471.28;1713928;83;21281;-79
2022/05/02 12:41:30;;;;;;;5.22;2.85;;;;;;;17.10;39.10;100471.06;1714868;81;21255;-80
2022/05/02 12:44:53;;;;;;;8.05;2.92;;;;;;;17.15;38.30;100473.18;1771756;80;21172;-80
2022/05/02 12:48:15;;;;;;;8.48;3.37;;;;;;;17.14;38.06;100467.34;1748389;81;21193;-79
2022/05/02 12:51:28;;;;;;;6.62;3.10;;;;;;;17.09;38.32;100466.07;1733675;81;21208;-79
2022/05/02 12:54:35;;;;;;;7.30;2.95;;;;;;;17.05;38.70;100469.48;1718166;82;21472;-79
2022/05/02 13:01:14;;;;;;;9.05;3.17;;;;;;;16.98;38.06;100460.33;1729500;82;21184;-79
2022/05/02 13:04:26;;;;;;;9.70;2.92;;;;;;;16.98;38.07;100458.95;1734095;82;21843;-80
2022/05/02 13:07:34;;;;;;;7.00;2.80;;;;;;;16.97;38.55;100459.48;1738422;82;21736;-80
2022/05/02 13:10:40;;;;;;;10.55;3.20;;;;;;;16.99;38.84;100456.53;1739750;82;21209;-80
2022/05/02 13:13:54;;;;;;;6.45;2.87;;;;;;;17.06;39.25;100451.29;1738771;82;21213;-80
2022/05/02 13:17:01;;;;;;;4.65;2.75;;;;;;;17.15;38.66;100446.92;1739154;82;21713;-80
2022/05/02 13:20:07;;;;;;;4.47;2.55;;;;;;;17.25;38.40;100443.17;1738930;82;21795;-80
2022/05/02 13:23:17;;;;;;;4.83;3.17;;;;;;;17.40;38.34;100446.52;1720467;82;21712;-80
2022/05/02 13:26:53;;;;;;;3.73;2.20;;;;;;;17.54;37.75;100444.02;1726022;81;21204;-80
2022/05/02 13:30:11;;;;;;;5.95;2.65;;;;;;;17.65;37.90;100445.28;1716464;81;21399;-80
2022/05/02 13:33:11;;;;;;;5.92;3.00;;;;;;;17.69;36.89;100442.90;1736932;81;21204;-79
2022/05/02 13:36:18;;;;;;;5.67;2.83;;;;;;;17.66;35.94;100444.74;1742068;82;21212;-80
2022/05/02 13:39:31;;;;;;;6.28;2.50;;;;;;;17.72;35.98;100442.47;1744772;82;21796;-79
2022/05/02 13:43:04;;;;;;;6.53;2.62;;;;;;;17.79;36.55;100444.72;1741502;82;21220;-79
2022/05/02 13:46:24;;;;;;;6.70;3.58;;;;;;;17.88;37.20;100441.48;1727223;83;21204;-80
2022/05/02 13:49:59;;;;;;;6.60;3.40;;;;;;;17.94;36.30;100436.13;1730973;82;21192;-79
2022/05/02 13:53:29;;;;;;;4.45;2.70;;;;;;;17.93;35.93;100438.05;1730669;82;21172;-80
2022/05/02 13:57:14;;;;;;;8.85;3.42;;;;;;;17.97;36.20;100441.20;1712905;83;21275;-80
2022/05/02 14:03:50;;;;;;;13.75;4.17;;;;;;;17.74;36.89;100437.63;1725584;82;21200;-80
2022/05/02 14:10:14;;;;;;;15.15;4.28;;;;;;;17.61;37.90;100437.10;1663774;82;21227;-79
2022/05/02 14:13:27;;;;;;;7.45;3.90;;;;;;;17.50;38.02;100433.11;1725662;82;21227;-79
2022/05/02 14:16:38;;;;;;;8.93;3.87;;;;;;;17.45;37.93;100431.51;1733588;82;21215;-79
2022/05/02 14:19:42;;;;;;;7.25;3.90;;;;;;;17.40;38.33;100430.47;1702704;82;21252;-80
2022/05/02 14:22:43;;;;;;;7.95;3.55;;;;;;;17.35;39.10;100425.59;1716368;83;21243;-79
2022/05/02 14:25:48;;;;;;;;;;;;;;;17.26;38.98;100419.45;1749890;81;21224;-79
2022/05/02 14:28:55;;;;;;;8.58;3.42;;;;;;;17.20;38.25;100423.09;1739433;82;20383;-79
2022/05/02 14:32:00;;;;;;;9.20;4.03;;;;;;;17.14;38.70;100424.50;1697607;83;21213;-80
2022/05/02 14:35:06;;;;;;;9.23;4.00;;;;;;;17.11;38.66;100428.00;1684568;82;21225;-80
2022/05/02 14:38:28;;;;;;;6.67;3.95;;;;;;;17.06;38.46;100415.37;1727243;82;21291;-80
2022/05/02 14:41:33;;;;;;;9.50;3.60;;;;;;;17.05;39.01;100413.67;1742101;81;21828;-80
2022/05/02 14:44:38;;;;;;;7.83;3.22;;;;;;;17.06;39.38;100409.00;1718545;83;21204;-80
2022/05/02 14:47:49;;;;;;;6.00;3.65;;;;;;;17.08;38.87;100406.34;1701930;82;21182;-80
2022/05/02 14:50:59;;;;;;;5.67;3.12;;;;;;;17.16;38.88;100403.02;1737247;82;21172;-80
2022/05/02 14:54:05;;;;;;;6.83;3.60;;;;;;;17.21;38.90;100403.20;1727126;83;21188;-80
2022/05/02 14:57:10;;;;;;;6.10;3.00;;;;;;;17.25;38.43;100405.86;1728399;83;21195;-80
2022/05/02 15:00:19;;;;;;;6.90;3.77;;;;;;;17.21;38.86;100408.73;1735247;82;21173;-80
2022/05/02 15:03:31;;;;;;;6.65;3.60;;;;;;;17.17;38.43;100401.94;1721261;82;21348;-80
2022/05/02 15:06:32;;;;;;;6.10;3.17;;;;;;;17.08;38.15;100395.30;1723215;82;21171;-80
2022/05/02 15:10:12;;;;;;;13.20;3.83;;;;;;;17.04;39.06;100392.64;1742662;82;21196;-80
2022/05/02 15:13:35;;;;;;;7.28;3.67;;;;;;;17.00;38.50;100390.53;1698805;82;21188;-80
2022/05/02 15:17:04;;;;;;;6.60;3.70;;;;;;;16.90;38.40;100388.75;1718602;83;21275;-79
2022/05/02 15:20:39;;;;;;;7.95;4.03;;;;;;;16.80;38.68;100387.81;1719326;83;21208;-79
2022/05/02 15:23:45;;;;;;;9.15;3.72;;;;;;;16.65;37.78;100387.14;1707098;82;21254;-80
2022/05/02 15:26:58;;;;;;;5.37;3.35;;;;;;;16.53;38.68;100389.18;1715369;82;21280;-79
2022/05/02 15:37:28;;;;;;;7.15;3.05;;;;;;;15.92;50.49;100372.80;1768341;81;21213;-79
2022/05/02 15:40:53;;;;;;;5.70;3.15;;;;;;;15.53;53.27;100384.03;1759534;81;21209;-79
2022/05/02 15:43:59;;;;;;;3.85;2.72;;;;;;;15.29;52.93;100390.05;1748474;81;21244;-79
2022/05/02 15:47:12;;;;;;;5.85;2.83;;;;;;;15.12;53.27;100390.10;1747124;80;21256;-80
2022/05/02 15:50:19;;;;;;;6.97;2.87;;;;;;;14.98;53.80;100391.40;1744378;82;21225;-80